sensor_id;sensor_type;location;lat;lon;timestamp;P1;durP1;ratioP1;P2;durP2;ratioP2
76729;SDS011;65653;53.106;18.046;2023-10-31T00:01:20;27.70;;;15.00;;
76729;SDS011;65653;53.106;18.046;2023-10-31T00:03:47;21.50;;;14.20;;
76729;SDS011;65653;53.106;18.046;2023-10-31T00:06:15;23.20;;;12.60;;
76729;SDS011;65653;53.106;18.046;2023-10-31T00:08:41;19.70;;;12.00;;
76729;SDS011;65653;53.106;18.046;2023-10-31T00:11:08;19.70;;;11.10;;
76729;SDS011;65653;53.106;18.046;2023-10-31T00:13:34;18.80;;;11.40;;
76729;SDS011;65653;53.106;18.046;2023-10-31T00:16:01;20.60;;;11.90;;
76729;SDS011;65653;53.106;18.046;2023-10-31T00:18:27;20.70;;;11.60;;
76729;SDS011;65653;53.106;18.046;2023-10-31T00:20:56;20.70;;;12.30;;
76729;SDS011;65653;53.106;18.046;2023-10-31T00:23:23;22.00;;;12.10;;
76729;SDS011;65653;53.106;18.046;2023-10-31T00:25:49;22.10;;;11.60;;
76729;SDS011;65653;53.106;18.046;2023-10-31T00:28:15;23.10;;;11.60;;
76729;SDS011;65653;53.106;18.046;2023-10-31T00:30:42;22.50;;;12.20;;
76729;SDS011;65653;53.106;18.046;2023-10-31T00:33:10;20.30;;;11.90;;
76729;SDS011;65653;53.106;18.046;2023-10-31T00:35:37;20.10;;;12.50;;
76729;SDS011;65653;53.106;18.046;2023-10-31T00:38:04;19.60;;;12.60;;
76729;SDS011;65653;53.106;18.046;2023-10-31T00:40:30;23.40;;;12.60;;
76729;SDS011;65653;53.106;18.046;2023-10-31T00:42:57;22.10;;;12.50;;
76729;SDS011;65653;53.106;18.046;2023-10-31T00:45:25;25.60;;;13.20;;
76729;SDS011;65653;53.106;18.046;2023-10-31T00:47:51;21.30;;;12.80;;
76729;SDS011;65653;53.106;18.046;2023-10-31T00:50:18;27.50;;;14.00;;
76729;SDS011;65653;53.106;18.046;2023-10-31T00:52:45;24.70;;;13.20;;
76729;SDS011;65653;53.106;18.046;2023-10-31T00:55:12;22.90;;;12.00;;
76729;SDS011;65653;53.106;18.046;2023-10-31T00:57:38;26.60;;;13.50;;
76729;SDS011;65653;53.106;18.046;2023-10-31T01:00:05;21.00;;;12.40;;
76729;SDS011;65653;53.106;18.046;2023-10-31T01:02:32;19.80;;;12.50;;
76729;SDS011;65653;53.106;18.046;2023-10-31T01:04:59;23.70;;;13.30;;
76729;SDS011;65653;53.106;18.046;2023-10-31T01:07:25;21.10;;;12.60;;
76729;SDS011;65653;53.106;18.046;2023-10-31T01:09:53;19.40;;;11.40;;
76729;SDS011;65653;53.106;18.046;2023-10-31T01:12:22;17.10;;;10.40;;
76729;SDS011;65653;53.106;18.046;2023-10-31T01:14:48;22.70;;;12.50;;
76729;SDS011;65653;53.106;18.046;2023-10-31T01:17:15;19.00;;;11.40;;
76729;SDS011;65653;53.106;18.046;2023-10-31T01:19:41;17.90;;;10.90;;
76729;SDS011;65653;53.106;18.046;2023-10-31T01:22:08;18.40;;;11.60;;
76729;SDS011;65653;53.106;18.046;2023-10-31T01:24:34;19.60;;;11.30;;
76729;SDS011;65653;53.106;18.046;2023-10-31T01:27:01;17.40;;;12.00;;
76729;SDS011;65653;53.106;18.046;2023-10-31T01:29:28;22.00;;;11.50;;
76729;SDS011;65653;53.106;18.046;2023-10-31T01:31:55;19.40;;;11.90;;
76729;SDS011;65653;53.106;18.046;2023-10-31T01:34:22;19.80;;;12.40;;
76729;SDS011;65653;53.106;18.046;2023-10-31T01:36:49;19.80;;;12.10;;
76729;SDS011;65653;53.106;18.046;2023-10-31T01:39:15;22.50;;;12.90;;
76729;SDS011;65653;53.106;18.046;2023-10-31T01:41:42;24.80;;;12.80;;
76729;SDS011;65653;53.106;18.046;2023-10-31T01:44:09;20.60;;;12.70;;
76729;SDS011;65653;53.106;18.046;2023-10-31T01:46:39;24.20;;;12.90;;
76729;SDS011;65653;53.106;18.046;2023-10-31T01:49:05;22.00;;;13.60;;
76729;SDS011;65653;53.106;18.046;2023-10-31T01:51:32;23.00;;;13.70;;
76729;SDS011;65653;53.106;18.046;2023-10-31T01:53:59;18.00;;;11.60;;
76729;SDS011;65653;53.106;18.046;2023-10-31T01:56:25;17.90;;;12.30;;
76729;SDS011;65653;53.106;18.046;2023-10-31T01:58:52;18.90;;;11.70;;
76729;SDS011;65653;53.106;18.046;2023-10-31T02:01:19;24.40;;;14.80;;
76729;SDS011;65653;53.106;18.046;2023-10-31T02:03:47;22.70;;;13.90;;
76729;SDS011;65653;53.106;18.046;2023-10-31T02:06:14;18.40;;;12.10;;
76729;SDS011;65653;53.106;18.046;2023-10-31T02:08:40;17.40;;;11.00;;
76729;SDS011;65653;53.106;18.046;2023-10-31T02:11:06;16.90;;;10.70;;
76729;SDS011;65653;53.106;18.046;2023-10-31T02:13:36;19.70;;;12.60;;
76729;SDS011;65653;53.106;18.046;2023-10-31T02:16:03;19.00;;;12.00;;
76729;SDS011;65653;53.106;18.046;2023-10-31T02:18:30;17.00;;;10.20;;
76729;SDS011;65653;53.106;18.046;2023-10-31T02:20:57;17.50;;;11.10;;
76729;SDS011;65653;53.106;18.046;2023-10-31T02:23:23;19.60;;;11.40;;
76729;SDS011;65653;53.106;18.046;2023-10-31T02:25:50;18.10;;;11.00;;
76729;SDS011;65653;53.106;18.046;2023-10-31T02:28:16;20.40;;;11.10;;
76729;SDS011;65653;53.106;18.046;2023-10-31T02:30:43;16.60;;;10.10;;
76729;SDS011;65653;53.106;18.046;2023-10-31T02:33:10;17.40;;;10.80;;
76729;SDS011;65653;53.106;18.046;2023-10-31T02:35:37;15.80;;;9.70;;
76729;SDS011;65653;53.106;18.046;2023-10-31T02:38:03;16.10;;;10.20;;
76729;SDS011;65653;53.106;18.046;2023-10-31T02:40:30;25.50;;;11.00;;
76729;SDS011;65653;53.106;18.046;2023-10-31T02:42:56;16.70;;;10.10;;
76729;SDS011;65653;53.106;18.046;2023-10-31T02:45:23;14.70;;;9.70;;
76729;SDS011;65653;53.106;18.046;2023-10-31T02:47:49;18.00;;;9.90;;
76729;SDS011;65653;53.106;18.046;2023-10-31T02:50:16;14.20;;;8.80;;
76729;SDS011;65653;53.106;18.046;2023-10-31T02:52:42;18.40;;;9.30;;
76729;SDS011;65653;53.106;18.046;2023-10-31T02:55:09;16.30;;;8.80;;
76729;SDS011;65653;53.106;18.046;2023-10-31T02:57:35;13.50;;;8.80;;
76729;SDS011;65653;53.106;18.046;2023-10-31T03:00:02;11.00;;;6.30;;
76729;SDS011;65653;53.106;18.046;2023-10-31T03:02:29;15.60;;;9.10;;
76729;SDS011;65653;53.106;18.046;2023-10-31T03:04:56;10.20;;;7.30;;
76729;SDS011;65653;53.106;18.046;2023-10-31T03:07:22;12.80;;;7.70;;
76729;SDS011;65653;53.106;18.046;2023-10-31T03:09:49;15.80;;;8.50;;
76729;SDS011;65653;53.106;18.046;2023-10-31T03:12:15;13.60;;;8.50;;
76729;SDS011;65653;53.106;18.046;2023-10-31T03:14:42;11.50;;;7.80;;
76729;SDS011;65653;53.106;18.046;2023-10-31T03:17:08;10.60;;;6.50;;
76729;SDS011;65653;53.106;18.046;2023-10-31T03:19:35;10.00;;;6.50;;
76729;SDS011;65653;53.106;18.046;2023-10-31T03:22:01;10.40;;;6.70;;
76729;SDS011;65653;53.106;18.046;2023-10-31T03:24:28;8.10;;;5.60;;
76729;SDS011;65653;53.106;18.046;2023-10-31T03:26:54;10.30;;;6.30;;
76729;SDS011;65653;53.106;18.046;2023-10-31T03:29:21;8.60;;;5.50;;
76729;SDS011;65653;53.106;18.046;2023-10-31T03:31:47;10.90;;;5.30;;
76729;SDS011;65653;53.106;18.046;2023-10-31T03:34:14;9.40;;;6.00;;
76729;SDS011;65653;53.106;18.046;2023-10-31T03:36:40;8.70;;;5.80;;
76729;SDS011;65653;53.106;18.046;2023-10-31T03:39:07;9.70;;;5.70;;
76729;SDS011;65653;53.106;18.046;2023-10-31T03:41:33;8.50;;;5.40;;
76729;SDS011;65653;53.106;18.046;2023-10-31T03:44:00;12.90;;;5.70;;
76729;SDS011;65653;53.106;18.046;2023-10-31T03:46:26;9.50;;;6.30;;
76729;SDS011;65653;53.106;18.046;2023-10-31T03:48:53;12.40;;;5.50;;
76729;SDS011;65653;53.106;18.046;2023-10-31T03:51:19;8.90;;;5.70;;
76729;SDS011;65653;53.106;18.046;2023-10-31T03:53:46;9.50;;;5.40;;
76729;SDS011;65653;53.106;18.046;2023-10-31T03:56:12;8.00;;;4.60;;
76729;SDS011;65653;53.106;18.046;2023-10-31T03:58:39;9.10;;;5.00;;
76729;SDS011;65653;53.106;18.046;2023-10-31T04:01:06;10.60;;;5.80;;
76729;SDS011;65653;53.106;18.046;2023-10-31T04:03:33;9.80;;;5.80;;
76729;SDS011;65653;53.106;18.046;2023-10-31T04:05:59;8.40;;;5.00;;
76729;SDS011;65653;53.106;18.046;2023-10-31T04:08:26;12.70;;;5.30;;
76729;SDS011;65653;53.106;18.046;2023-10-31T04:10:52;12.00;;;6.10;;
76729;SDS011;65653;53.106;18.046;2023-10-31T04:13:19;10.80;;;5.20;;
76729;SDS011;65653;53.106;18.046;2023-10-31T04:15:45;9.60;;;5.50;;
76729;SDS011;65653;53.106;18.046;2023-10-31T04:18:11;8.30;;;4.50;;
76729;SDS011;65653;53.106;18.046;2023-10-31T04:20:38;9.00;;;5.50;;
76729;SDS011;65653;53.106;18.046;2023-10-31T04:23:05;10.70;;;5.70;;
76729;SDS011;65653;53.106;18.046;2023-10-31T04:25:31;10.60;;;5.10;;
76729;SDS011;65653;53.106;18.046;2023-10-31T04:27:58;7.60;;;5.50;;
76729;SDS011;65653;53.106;18.046;2023-10-31T04:30:25;9.80;;;5.80;;
76729;SDS011;65653;53.106;18.046;2023-10-31T04:32:52;6.60;;;4.20;;
76729;SDS011;65653;53.106;18.046;2023-10-31T04:35:18;9.40;;;4.90;;
76729;SDS011;65653;53.106;18.046;2023-10-31T04:37:45;8.90;;;5.40;;
76729;SDS011;65653;53.106;18.046;2023-10-31T04:40:11;8.00;;;5.00;;
76729;SDS011;65653;53.106;18.046;2023-10-31T04:42:39;10.50;;;5.10;;
76729;SDS011;65653;53.106;18.046;2023-10-31T04:45:07;10.20;;;5.00;;
76729;SDS011;65653;53.106;18.046;2023-10-31T04:47:34;9.60;;;4.90;;
76729;SDS011;65653;53.106;18.046;2023-10-31T04:50:00;12.90;;;5.10;;
76729;SDS011;65653;53.106;18.046;2023-10-31T04:52:27;10.20;;;5.30;;
76729;SDS011;65653;53.106;18.046;2023-10-31T04:54:53;9.70;;;4.90;;
76729;SDS011;65653;53.106;18.046;2023-10-31T04:57:20;8.30;;;5.10;;
76729;SDS011;65653;53.106;18.046;2023-10-31T04:59:46;8.10;;;4.60;;
76729;SDS011;65653;53.106;18.046;2023-10-31T05:02:13;8.50;;;4.60;;
76729;SDS011;65653;53.106;18.046;2023-10-31T05:04:39;11.10;;;5.20;;
76729;SDS011;65653;53.106;18.046;2023-10-31T05:07:09;9.70;;;5.30;;
76729;SDS011;65653;53.106;18.046;2023-10-31T05:09:35;6.80;;;3.80;;
76729;SDS011;65653;53.106;18.046;2023-10-31T05:12:02;7.80;;;4.20;;
76729;SDS011;65653;53.106;18.046;2023-10-31T05:14:28;7.20;;;4.30;;
76729;SDS011;65653;53.106;18.046;2023-10-31T05:16:55;7.50;;;4.10;;
76729;SDS011;65653;53.106;18.046;2023-10-31T05:19:21;8.80;;;4.60;;
76729;SDS011;65653;53.106;18.046;2023-10-31T05:21:47;7.70;;;4.30;;
76729;SDS011;65653;53.106;18.046;2023-10-31T05:24:14;8.60;;;3.90;;
76729;SDS011;65653;53.106;18.046;2023-10-31T05:26:40;8.60;;;4.30;;
76729;SDS011;65653;53.106;18.046;2023-10-31T05:29:09;8.30;;;4.10;;
76729;SDS011;65653;53.106;18.046;2023-10-31T05:31:37;8.90;;;4.00;;
76729;SDS011;65653;53.106;18.046;2023-10-31T05:34:03;8.20;;;3.60;;
76729;SDS011;65653;53.106;18.046;2023-10-31T05:36:30;7.00;;;3.80;;
76729;SDS011;65653;53.106;18.046;2023-10-31T05:38:57;21.80;;;10.30;;
76729;SDS011;65653;53.106;18.046;2023-10-31T05:41:23;8.80;;;3.80;;
76729;SDS011;65653;53.106;18.046;2023-10-31T05:43:50;8.50;;;3.80;;
76729;SDS011;65653;53.106;18.046;2023-10-31T05:46:16;8.60;;;4.10;;
76729;SDS011;65653;53.106;18.046;2023-10-31T05:48:44;6.90;;;4.00;;
76729;SDS011;65653;53.106;18.046;2023-10-31T05:51:16;6.70;;;4.30;;
76729;SDS011;65653;53.106;18.046;2023-10-31T05:53:44;6.20;;;3.70;;
76729;SDS011;65653;53.106;18.046;2023-10-31T05:56:13;6.90;;;4.00;;
76729;SDS011;65653;53.106;18.046;2023-10-31T05:58:40;9.70;;;4.40;;
76729;SDS011;65653;53.106;18.046;2023-10-31T06:01:07;8.40;;;4.50;;
76729;SDS011;65653;53.106;18.046;2023-10-31T06:03:35;7.00;;;3.90;;
76729;SDS011;65653;53.106;18.046;2023-10-31T06:06:01;8.00;;;3.60;;
76729;SDS011;65653;53.106;18.046;2023-10-31T06:08:28;6.60;;;4.60;;
76729;SDS011;65653;53.106;18.046;2023-10-31T06:10:55;5.20;;;3.30;;
76729;SDS011;65653;53.106;18.046;2023-10-31T06:13:23;8.10;;;4.20;;
76729;SDS011;65653;53.106;18.046;2023-10-31T06:15:54;9.30;;;4.30;;
76729;SDS011;65653;53.106;18.046;2023-10-31T06:18:21;6.00;;;3.50;;
76729;SDS011;65653;53.106;18.046;2023-10-31T06:20:47;6.10;;;3.70;;
76729;SDS011;65653;53.106;18.046;2023-10-31T06:23:14;8.00;;;4.20;;
76729;SDS011;65653;53.106;18.046;2023-10-31T06:25:40;5.80;;;3.10;;
76729;SDS011;65653;53.106;18.046;2023-10-31T06:28:07;7.00;;;3.60;;
76729;SDS011;65653;53.106;18.046;2023-10-31T06:30:33;10.00;;;3.70;;
76729;SDS011;65653;53.106;18.046;2023-10-31T06:33:00;7.10;;;3.90;;
76729;SDS011;65653;53.106;18.046;2023-10-31T06:35:26;7.60;;;4.00;;
76729;SDS011;65653;53.106;18.046;2023-10-31T06:37:54;5.30;;;3.20;;
76729;SDS011;65653;53.106;18.046;2023-10-31T06:40:25;7.80;;;3.80;;
76729;SDS011;65653;53.106;18.046;2023-10-31T06:42:52;10.40;;;4.30;;
76729;SDS011;65653;53.106;18.046;2023-10-31T06:45:19;10.00;;;4.00;;
76729;SDS011;65653;53.106;18.046;2023-10-31T06:47:45;7.70;;;4.10;;
76729;SDS011;65653;53.106;18.046;2023-10-31T06:50:12;6.80;;;3.40;;
76729;SDS011;65653;53.106;18.046;2023-10-31T06:52:38;10.50;;;4.50;;
76729;SDS011;65653;53.106;18.046;2023-10-31T06:55:05;6.60;;;3.40;;
76729;SDS011;65653;53.106;18.046;2023-10-31T06:57:32;7.30;;;3.70;;
76729;SDS011;65653;53.106;18.046;2023-10-31T06:59:59;9.20;;;4.30;;
76729;SDS011;65653;53.106;18.046;2023-10-31T07:02:25;8.50;;;4.20;;
76729;SDS011;65653;53.106;18.046;2023-10-31T07:04:52;7.20;;;3.90;;
76729;SDS011;65653;53.106;18.046;2023-10-31T07:07:18;8.50;;;4.20;;
76729;SDS011;65653;53.106;18.046;2023-10-31T07:09:45;9.90;;;4.40;;
76729;SDS011;65653;53.106;18.046;2023-10-31T07:12:11;7.90;;;4.30;;
76729;SDS011;65653;53.106;18.046;2023-10-31T07:14:38;7.80;;;4.10;;
76729;SDS011;65653;53.106;18.046;2023-10-31T07:17:04;8.80;;;3.90;;
76729;SDS011;65653;53.106;18.046;2023-10-31T07:19:31;9.40;;;4.60;;
76729;SDS011;65653;53.106;18.046;2023-10-31T07:21:57;7.50;;;3.30;;
76729;SDS011;65653;53.106;18.046;2023-10-31T07:24:23;7.40;;;4.20;;
76729;SDS011;65653;53.106;18.046;2023-10-31T07:26:50;7.00;;;3.60;;
76729;SDS011;65653;53.106;18.046;2023-10-31T07:29:17;7.10;;;4.00;;
76729;SDS011;65653;53.106;18.046;2023-10-31T07:31:43;7.40;;;3.80;;
76729;SDS011;65653;53.106;18.046;2023-10-31T07:34:10;7.20;;;3.80;;
76729;SDS011;65653;53.106;18.046;2023-10-31T07:36:37;6.70;;;3.70;;
76729;SDS011;65653;53.106;18.046;2023-10-31T07:39:05;11.40;;;4.20;;
76729;SDS011;65653;53.106;18.046;2023-10-31T07:41:32;8.20;;;4.20;;
76729;SDS011;65653;53.106;18.046;2023-10-31T07:43:58;9.80;;;4.20;;
76729;SDS011;65653;53.106;18.046;2023-10-31T07:46:25;9.70;;;4.30;;
76729;SDS011;65653;53.106;18.046;2023-10-31T07:51:24;10.10;;;4.50;;
76729;SDS011;65653;53.106;18.046;2023-10-31T07:53:51;11.50;;;4.80;;
76729;SDS011;65653;53.106;18.046;2023-10-31T07:56:18;8.30;;;4.40;;
76729;SDS011;65653;53.106;18.046;2023-10-31T07:58:49;9.90;;;4.90;;
76729;SDS011;65653;53.106;18.046;2023-10-31T08:01:16;8.60;;;4.80;;
76729;SDS011;65653;53.106;18.046;2023-10-31T08:03:45;11.30;;;4.80;;
76729;SDS011;65653;53.106;18.046;2023-10-31T08:06:12;10.30;;;5.50;;
76729;SDS011;65653;53.106;18.046;2023-10-31T08:08:39;11.70;;;5.40;;
76729;SDS011;65653;53.106;18.046;2023-10-31T08:11:09;11.10;;;5.70;;
76729;SDS011;65653;53.106;18.046;2023-10-31T08:13:38;7.80;;;3.90;;
76729;SDS011;65653;53.106;18.046;2023-10-31T08:16:05;10.20;;;5.40;;
76729;SDS011;65653;53.106;18.046;2023-10-31T08:18:33;10.20;;;4.60;;
76729;SDS011;65653;53.106;18.046;2023-10-31T08:21:03;9.50;;;5.40;;
76729;SDS011;65653;53.106;18.046;2023-10-31T08:23:32;9.10;;;4.70;;
76729;SDS011;65653;53.106;18.046;2023-10-31T08:25:59;12.00;;;4.70;;
76729;SDS011;65653;53.106;18.046;2023-10-31T08:28:26;7.60;;;4.50;;
76729;SDS011;65653;53.106;18.046;2023-10-31T08:30:52;9.40;;;5.60;;
76729;SDS011;65653;53.106;18.046;2023-10-31T08:33:19;11.90;;;5.30;;
76729;SDS011;65653;53.106;18.046;2023-10-31T08:35:46;10.40;;;5.50;;
76729;SDS011;65653;53.106;18.046;2023-10-31T08:38:15;8.80;;;5.90;;
76729;SDS011;65653;53.106;18.046;2023-10-31T08:40:41;11.00;;;6.50;;
76729;SDS011;65653;53.106;18.046;2023-10-31T08:43:08;7.50;;;5.40;;
76729;SDS011;65653;53.106;18.046;2023-10-31T08:45:35;12.30;;;7.00;;
76729;SDS011;65653;53.106;18.046;2023-10-31T08:48:02;11.00;;;7.00;;
76729;SDS011;65653;53.106;18.046;2023-10-31T08:50:29;11.60;;;6.80;;
76729;SDS011;65653;53.106;18.046;2023-10-31T08:52:55;11.80;;;6.90;;
76729;SDS011;65653;53.106;18.046;2023-10-31T08:55:22;8.70;;;4.80;;
76729;SDS011;65653;53.106;18.046;2023-10-31T08:57:49;11.70;;;7.50;;
76729;SDS011;65653;53.106;18.046;2023-10-31T09:00:18;7.10;;;5.40;;
76729;SDS011;65653;53.106;18.046;2023-10-31T09:02:46;9.20;;;6.50;;
76729;SDS011;65653;53.106;18.046;2023-10-31T09:05:15;9.70;;;7.40;;
76729;SDS011;65653;53.106;18.046;2023-10-31T09:07:41;9.00;;;6.40;;
76729;SDS011;65653;53.106;18.046;2023-10-31T09:10:08;9.80;;;6.80;;
76729;SDS011;65653;53.106;18.046;2023-10-31T09:12:35;6.50;;;4.90;;
76729;SDS011;65653;53.106;18.046;2023-10-31T09:15:01;9.70;;;6.50;;
76729;SDS011;65653;53.106;18.046;2023-10-31T09:17:28;8.00;;;5.90;;
76729;SDS011;65653;53.106;18.046;2023-10-31T09:19:55;8.40;;;6.00;;
76729;SDS011;65653;53.106;18.046;2023-10-31T09:22:22;8.30;;;6.10;;
76729;SDS011;65653;53.106;18.046;2023-10-31T09:24:49;7.20;;;5.00;;
76729;SDS011;65653;53.106;18.046;2023-10-31T09:27:16;8.30;;;5.40;;
76729;SDS011;65653;53.106;18.046;2023-10-31T09:29:43;6.30;;;4.70;;
76729;SDS011;65653;53.106;18.046;2023-10-31T09:32:09;8.00;;;4.40;;
76729;SDS011;65653;53.106;18.046;2023-10-31T09:34:36;5.10;;;4.20;;
76729;SDS011;65653;53.106;18.046;2023-10-31T09:37:04;9.60;;;4.40;;
76729;SDS011;65653;53.106;18.046;2023-10-31T09:39:30;5.60;;;3.80;;
76729;SDS011;65653;53.106;18.046;2023-10-31T09:41:57;4.80;;;3.50;;
76729;SDS011;65653;53.106;18.046;2023-10-31T09:44:25;3.80;;;3.10;;
76729;SDS011;65653;53.106;18.046;2023-10-31T09:46:53;4.80;;;3.70;;
76729;SDS011;65653;53.106;18.046;2023-10-31T09:49:20;5.10;;;3.80;;
76729;SDS011;65653;53.106;18.046;2023-10-31T09:51:47;5.40;;;3.50;;
76729;SDS011;65653;53.106;18.046;2023-10-31T09:54:15;6.50;;;3.60;;
76729;SDS011;65653;53.106;18.046;2023-10-31T09:56:43;5.60;;;4.00;;
76729;SDS011;65653;53.106;18.046;2023-10-31T09:59:10;4.70;;;3.60;;
76729;SDS011;65653;53.106;18.046;2023-10-31T10:01:37;5.50;;;4.20;;
76729;SDS011;65653;53.106;18.046;2023-10-31T10:04:03;4.40;;;3.90;;
76729;SDS011;65653;53.106;18.046;2023-10-31T10:06:32;6.00;;;3.80;;
76729;SDS011;65653;53.106;18.046;2023-10-31T10:08:58;5.90;;;4.00;;
76729;SDS011;65653;53.106;18.046;2023-10-31T10:11:25;4.90;;;3.70;;
76729;SDS011;65653;53.106;18.046;2023-10-31T10:13:57;5.50;;;4.00;;
76729;SDS011;65653;53.106;18.046;2023-10-31T10:16:30;5.70;;;3.70;;
76729;SDS011;65653;53.106;18.046;2023-10-31T10:19:19;4.20;;;3.80;;
76729;SDS011;65653;53.106;18.046;2023-10-31T10:21:53;5.70;;;4.10;;
76729;SDS011;65653;53.106;18.046;2023-10-31T10:24:25;4.80;;;4.30;;
76729;SDS011;65653;53.106;18.046;2023-10-31T10:26:51;4.40;;;3.60;;
76729;SDS011;65653;53.106;18.046;2023-10-31T10:29:19;5.90;;;4.60;;
76729;SDS011;65653;53.106;18.046;2023-10-31T10:31:47;5.10;;;4.60;;
76729;SDS011;65653;53.106;18.046;2023-10-31T10:34:14;6.80;;;4.50;;
76729;SDS011;65653;53.106;18.046;2023-10-31T10:36:44;6.20;;;4.30;;
76729;SDS011;65653;53.106;18.046;2023-10-31T10:39:20;6.30;;;4.80;;
76729;SDS011;65653;53.106;18.046;2023-10-31T10:41:52;5.40;;;4.80;;
76729;SDS011;65653;53.106;18.046;2023-10-31T10:44:33;6.10;;;5.40;;
76729;SDS011;65653;53.106;18.046;2023-10-31T10:47:03;6.10;;;5.50;;
76729;SDS011;65653;53.106;18.046;2023-10-31T10:49:34;6.70;;;5.60;;
76729;SDS011;65653;53.106;18.046;2023-10-31T10:54:37;6.60;;;5.20;;
76729;SDS011;65653;53.106;18.046;2023-10-31T10:57:56;7.50;;;5.20;;
76729;SDS011;65653;53.106;18.046;2023-10-31T11:00:39;9.00;;;6.20;;
76729;SDS011;65653;53.106;18.046;2023-10-31T11:03:06;8.60;;;6.20;;
76729;SDS011;65653;53.106;18.046;2023-10-31T11:05:34;6.50;;;5.60;;
76729;SDS011;65653;53.106;18.046;2023-10-31T11:08:02;8.90;;;6.50;;
76729;SDS011;65653;53.106;18.046;2023-10-31T11:10:30;8.90;;;6.30;;
76729;SDS011;65653;53.106;18.046;2023-10-31T11:12:58;9.50;;;6.50;;
76729;SDS011;65653;53.106;18.046;2023-10-31T11:15:24;7.70;;;6.40;;
76729;SDS011;65653;53.106;18.046;2023-10-31T11:17:53;8.70;;;6.70;;
76729;SDS011;65653;53.106;18.046;2023-10-31T11:20:21;8.70;;;6.20;;
76729;SDS011;65653;53.106;18.046;2023-10-31T11:22:48;9.80;;;6.60;;
76729;SDS011;65653;53.106;18.046;2023-10-31T11:25:23;8.30;;;6.00;;
76729;SDS011;65653;53.106;18.046;2023-10-31T11:27:50;8.10;;;6.10;;
76729;SDS011;65653;53.106;18.046;2023-10-31T11:30:21;7.00;;;5.10;;
76729;SDS011;65653;53.106;18.046;2023-10-31T11:32:51;7.10;;;5.40;;
76729;SDS011;65653;53.106;18.046;2023-10-31T11:35:19;8.50;;;5.80;;
76729;SDS011;65653;53.106;18.046;2023-10-31T11:37:49;7.30;;;5.30;;
76729;SDS011;65653;53.106;18.046;2023-10-31T11:40:27;8.40;;;5.40;;
76729;SDS011;65653;53.106;18.046;2023-10-31T11:42:58;7.20;;;5.70;;
76729;SDS011;65653;53.106;18.046;2023-10-31T11:45:45;4.90;;;4.10;;
76729;SDS011;65653;53.106;18.046;2023-10-31T11:48:15;6.70;;;4.90;;
76729;SDS011;65653;53.106;18.046;2023-10-31T11:50:42;6.50;;;4.70;;
76729;SDS011;65653;53.106;18.046;2023-10-31T11:53:11;5.80;;;4.00;;
76729;SDS011;65653;53.106;18.046;2023-10-31T11:55:40;5.40;;;3.50;;
76729;SDS011;65653;53.106;18.046;2023-10-31T11:58:19;3.70;;;3.30;;
76729;SDS011;65653;53.106;18.046;2023-10-31T12:00:50;3.70;;;2.20;;
76729;SDS011;65653;53.106;18.046;2023-10-31T12:03:20;4.00;;;2.70;;
76729;SDS011;65653;53.106;18.046;2023-10-31T12:05:57;3.00;;;2.40;;
76729;SDS011;65653;53.106;18.046;2023-10-31T12:08:31;3.10;;;2.40;;
76729;SDS011;65653;53.106;18.046;2023-10-31T12:11:06;2.90;;;2.20;;
76729;SDS011;65653;53.106;18.046;2023-10-31T12:13:33;2.70;;;2.50;;
76729;SDS011;65653;53.106;18.046;2023-10-31T12:16:01;2.80;;;2.30;;
76729;SDS011;65653;53.106;18.046;2023-10-31T12:18:28;2.10;;;1.90;;
76729;SDS011;65653;53.106;18.046;2023-10-31T12:20:55;2.20;;;1.80;;
76729;SDS011;65653;53.106;18.046;2023-10-31T12:23:22;2.20;;;2.00;;
76729;SDS011;65653;53.106;18.046;2023-10-31T12:25:49;1.80;;;1.70;;
76729;SDS011;65653;53.106;18.046;2023-10-31T12:28:20;2.20;;;1.90;;
76729;SDS011;65653;53.106;18.046;2023-10-31T12:30:49;2.10;;;1.80;;
76729;SDS011;65653;53.106;18.046;2023-10-31T12:33:17;2.30;;;1.70;;
76729;SDS011;65653;53.106;18.046;2023-10-31T12:35:44;2.00;;;1.80;;
76729;SDS011;65653;53.106;18.046;2023-10-31T12:38:11;2.00;;;1.30;;
76729;SDS011;65653;53.106;18.046;2023-10-31T12:40:39;2.80;;;2.10;;
76729;SDS011;65653;53.106;18.046;2023-10-31T12:43:10;2.00;;;1.60;;
76729;SDS011;65653;53.106;18.046;2023-10-31T12:45:38;1.90;;;1.70;;
76729;SDS011;65653;53.106;18.046;2023-10-31T12:48:08;2.00;;;1.60;;
76729;SDS011;65653;53.106;18.046;2023-10-31T12:50:36;1.90;;;1.60;;
76729;SDS011;65653;53.106;18.046;2023-10-31T12:53:06;2.20;;;1.80;;
76729;SDS011;65653;53.106;18.046;2023-10-31T12:55:39;1.50;;;1.00;;
76729;SDS011;65653;53.106;18.046;2023-10-31T12:58:07;1.20;;;1.10;;
76729;SDS011;65653;53.106;18.046;2023-10-31T13:00:41;2.30;;;1.50;;
76729;SDS011;65653;53.106;18.046;2023-10-31T13:03:08;1.70;;;1.40;;
76729;SDS011;65653;53.106;18.046;2023-10-31T13:05:35;2.10;;;1.40;;
76729;SDS011;65653;53.106;18.046;2023-10-31T13:08:02;1.80;;;0.70;;
76729;SDS011;65653;53.106;18.046;2023-10-31T13:10:31;3.30;;;1.40;;
76729;SDS011;65653;53.106;18.046;2023-10-31T13:12:59;2.50;;;1.40;;
76729;SDS011;65653;53.106;18.046;2023-10-31T13:15:25;3.40;;;1.80;;
76729;SDS011;65653;53.106;18.046;2023-10-31T13:17:52;3.30;;;2.00;;
76729;SDS011;65653;53.106;18.046;2023-10-31T13:20:20;3.00;;;2.00;;
76729;SDS011;65653;53.106;18.046;2023-10-31T13:22:48;2.30;;;1.60;;
76729;SDS011;65653;53.106;18.046;2023-10-31T13:25:15;3.10;;;1.90;;
76729;SDS011;65653;53.106;18.046;2023-10-31T13:27:44;2.00;;;1.70;;
76729;SDS011;65653;53.106;18.046;2023-10-31T13:30:13;3.60;;;1.70;;
76729;SDS011;65653;53.106;18.046;2023-10-31T13:32:44;2.30;;;2.00;;
76729;SDS011;65653;53.106;18.046;2023-10-31T13:35:11;2.30;;;1.70;;
76729;SDS011;65653;53.106;18.046;2023-10-31T13:37:38;2.70;;;1.50;;
76729;SDS011;65653;53.106;18.046;2023-10-31T13:40:05;2.00;;;1.80;;
76729;SDS011;65653;53.106;18.046;2023-10-31T13:42:35;1.60;;;1.10;;
76729;SDS011;65653;53.106;18.046;2023-10-31T13:45:02;2.10;;;1.80;;
76729;SDS011;65653;53.106;18.046;2023-10-31T13:47:29;1.60;;;1.50;;
76729;SDS011;65653;53.106;18.046;2023-10-31T13:49:56;2.10;;;1.80;;
76729;SDS011;65653;53.106;18.046;2023-10-31T13:52:23;2.10;;;1.90;;
76729;SDS011;65653;53.106;18.046;2023-10-31T13:54:50;1.70;;;1.50;;
76729;SDS011;65653;53.106;18.046;2023-10-31T13:57:16;2.10;;;1.50;;
76729;SDS011;65653;53.106;18.046;2023-10-31T13:59:43;2.10;;;1.70;;
76729;SDS011;65653;53.106;18.046;2023-10-31T14:02:10;1.90;;;1.70;;
76729;SDS011;65653;53.106;18.046;2023-10-31T14:04:36;1.90;;;1.50;;
76729;SDS011;65653;53.106;18.046;2023-10-31T14:07:03;2.80;;;1.80;;
76729;SDS011;65653;53.106;18.046;2023-10-31T14:09:30;3.90;;;1.30;;
76729;SDS011;65653;53.106;18.046;2023-10-31T14:11:57;2.30;;;1.40;;
76729;SDS011;65653;53.106;18.046;2023-10-31T14:14:25;2.00;;;1.30;;
76729;SDS011;65653;53.106;18.046;2023-10-31T14:16:51;1.50;;;1.30;;
76729;SDS011;65653;53.106;18.046;2023-10-31T14:19:19;1.80;;;1.30;;
76729;SDS011;65653;53.106;18.046;2023-10-31T14:21:45;1.60;;;1.30;;
76729;SDS011;65653;53.106;18.046;2023-10-31T14:24:12;1.50;;;1.20;;
76729;SDS011;65653;53.106;18.046;2023-10-31T14:26:39;3.10;;;1.50;;
76729;SDS011;65653;53.106;18.046;2023-10-31T14:29:06;4.80;;;1.70;;
76729;SDS011;65653;53.106;18.046;2023-10-31T14:31:37;1.50;;;1.30;;
76729;SDS011;65653;53.106;18.046;2023-10-31T14:34:05;2.00;;;1.60;;
76729;SDS011;65653;53.106;18.046;2023-10-31T14:36:32;1.80;;;1.50;;